createdAt,value
2023-03-24T00:00:00.554Z,0.0
2023-03-24T00:04:00.621Z,0.0
2023-03-24T00:08:02.142Z,0.0
2023-03-24T00:12:00.530Z,0.0
2023-03-24T00:16:00.649Z,0.0
2023-03-24T00:20:00.531Z,0.0
2023-03-24T00:24:00.557Z,0.0
2023-03-24T00:28:00.539Z,0.0
2023-03-24T00:32:00.554Z,0.0
2023-03-24T00:36:00.568Z,0.0
2023-03-24T00:40:00.554Z,0.0
2023-03-24T00:44:00.564Z,0.0
2023-03-24T00:48:00.594Z,0.0
2023-03-24T00:52:00.550Z,0.0
2023-03-24T00:56:00.577Z,0.0
2023-03-24T01:00:00.563Z,0.0
2023-03-24T01:04:00.546Z,0.0
2023-03-24T01:08:00.561Z,0.0
2023-03-24T01:12:00.554Z,0.0
2023-03-24T01:16:00.562Z,0.0
2023-03-24T01:20:00.555Z,0.0
2023-03-24T01:24:00.563Z,0.0
2023-03-24T01:28:00.525Z,0.0
2023-03-24T01:32:00.632Z,0.0
2023-03-24T01:36:00.616Z,0.0
2023-03-24T01:40:00.533Z,0.0
2023-03-24T01:44:00.548Z,0.0
2023-03-24T01:48:00.610Z,0.0
2023-03-24T01:52:00.542Z,0.0
2023-03-24T01:56:00.544Z,0.0
2023-03-24T02:00:00.569Z,0.0
2023-03-24T02:04:00.555Z,0.0
2023-03-24T02:08:00.548Z,0.0
2023-03-24T02:12:00.545Z,0.0
2023-03-24T02:16:00.599Z,0.0
2023-03-24T02:20:00.558Z,0.0
2023-03-24T02:24:00.574Z,0.0
2023-03-24T02:28:00.537Z,0.0
2023-03-24T02:32:00.594Z,0.0
2023-03-24T02:36:00.585Z,0.0
2023-03-24T02:40:00.573Z,0.0
2023-03-24T02:44:00.545Z,0.0
2023-03-24T02:48:00.635Z,0.0
2023-03-24T02:52:00.551Z,0.0
2023-03-24T02:56:00.570Z,0.0
2023-03-24T03:00:00.543Z,0.0
2023-03-24T03:04:00.568Z,0.0
2023-03-24T03:08:00.542Z,0.0
2023-03-24T03:12:00.527Z,0.0
2023-03-24T03:16:00.676Z,0.0
2023-03-24T03:20:00.527Z,0.1
2023-03-24T03:24:00.522Z,0.1
2023-03-24T03:28:00.548Z,0.1
2023-03-24T03:32:00.529Z,0.1
2023-03-24T03:36:00.543Z,0.2
2023-03-24T03:40:00.536Z,0.2
2023-03-24T03:44:00.554Z,0.2
2023-03-24T03:48:00.656Z,0.3
2023-03-24T03:52:00.555Z,0.3
2023-03-24T03:56:00.553Z,0.3
2023-03-24T04:00:00.564Z,0.3
2023-03-24T04:04:00.623Z,0.3
2023-03-24T04:08:00.544Z,0.4
2023-03-24T04:12:00.553Z,0.4
2023-03-24T04:16:00.635Z,0.4
2023-03-24T04:20:00.561Z,0.3
2023-03-24T04:24:00.556Z,0.3
2023-03-24T04:28:00.561Z,0.3
2023-03-24T04:32:00.560Z,0.3
2023-03-24T04:36:00.573Z,0.2
2023-03-24T04:40:00.531Z,0.2
2023-03-24T04:44:00.551Z,0.2
2023-03-24T04:48:00.660Z,0.1
2023-03-24T04:52:00.578Z,0.1
2023-03-24T04:56:00.535Z,0.1
2023-03-24T05:00:00.540Z,0.1
2023-03-24T05:04:00.599Z,0.1
2023-03-24T05:08:00.536Z,0.0
2023-03-24T05:12:01.900Z,0.0
2023-03-24T05:16:00.590Z,0.0
2023-03-24T05:20:00.539Z,0.0
2023-03-24T05:24:00.567Z,0.0
2023-03-24T05:28:00.556Z,0.0
2023-03-24T05:32:00.546Z,0.0
2023-03-24T05:36:00.591Z,0.0
2023-03-24T05:40:00.559Z,0.0
2023-03-24T05:44:00.551Z,0.0
2023-03-24T05:48:00.576Z,0.0
2023-03-24T05:52:00.572Z,0.0
2023-03-24T05:56:00.540Z,0.0
2023-03-24T06:00:00.550Z,0.0
2023-03-24T06:04:00.608Z,0.0
2023-03-24T06:08:00.547Z,0.0
2023-03-24T06:12:00.541Z,0.0
2023-03-24T06:16:03.515Z,0.0
2023-03-24T06:20:00.544Z,0.0
2023-03-24T06:24:00.546Z,0.0
2023-03-24T06:28:00.547Z,0.0
2023-03-24T06:32:00.555Z,0.0
2023-03-24T06:36:00.560Z,0.0
2023-03-24T06:40:00.595Z,0.0
2023-03-24T06:44:00.572Z,0.0
2023-03-24T06:48:00.609Z,0.0
2023-03-24T06:52:00.547Z,0.0
2023-03-24T06:56:00.541Z,0.0
2023-03-24T07:00:00.554Z,0.0
2023-03-24T07:04:00.646Z,0.0
2023-03-24T07:12:00.550Z,0.0
2023-03-24T07:16:00.614Z,0.0
2023-03-24T07:20:00.560Z,0.0
2023-03-24T07:24:00.551Z,0.0
2023-03-24T07:28:00.540Z,0.0
2023-03-24T07:32:00.556Z,0.0
2023-03-24T07:36:00.781Z,0.0
2023-03-24T07:40:00.578Z,0.0
2023-03-24T07:44:00.556Z,0.0
2023-03-24T07:48:00.656Z,0.0
2023-03-24T07:52:00.562Z,0.0
2023-03-24T07:56:00.535Z,0.0
2023-03-24T08:00:00.562Z,0.0
2023-03-24T08:04:00.716Z,0.0
2023-03-24T08:08:00.565Z,0.0
2023-03-24T08:12:06.938Z,0.1
2023-03-24T08:16:00.545Z,0.2
2023-03-24T08:20:02.625Z,0.3
2023-03-24T08:24:00.548Z,0.3
2023-03-24T08:28:00.556Z,0.5
2023-03-24T08:32:00.558Z,0.6
2023-03-24T08:36:00.613Z,0.8
2023-03-24T08:40:00.564Z,0.8
2023-03-24T08:44:00.544Z,0.8
2023-03-24T08:48:00.607Z,0.9
2023-03-24T08:52:00.575Z,0.9
2023-03-24T08:56:00.560Z,0.9
2023-03-24T09:00:00.524Z,0.9
2023-03-24T09:04:00.562Z,0.9
2023-03-24T09:08:00.535Z,0.9
2023-03-24T09:12:00.548Z,0.8
2023-03-24T09:16:00.572Z,0.7
2023-03-24T09:20:02.148Z,0.6
2023-03-24T09:24:00.557Z,0.6
2023-03-24T09:28:00.542Z,0.4
2023-03-24T09:32:00.541Z,0.3
2023-03-24T09:36:00.743Z,0.1
2023-03-24T09:40:00.548Z,0.1
2023-03-24T09:44:00.541Z,0.1
2023-03-24T09:48:00.576Z,0.0
2023-03-24T09:52:00.544Z,0.0
2023-03-24T09:56:00.566Z,0.0
2023-03-24T10:00:00.540Z,0.0
2023-03-24T10:04:00.657Z,0.0
2023-03-24T10:08:00.539Z,0.0
2023-03-24T10:12:00.559Z,0.0
2023-03-24T10:16:00.556Z,0.0
2023-03-24T10:20:00.691Z,0.0
2023-03-24T10:24:00.561Z,0.0
2023-03-24T10:28:00.540Z,0.0
2023-03-24T10:32:00.582Z,0.0
2023-03-24T10:36:00.585Z,0.0
2023-03-24T10:40:00.561Z,0.0
2023-03-24T10:44:00.589Z,0.0
2023-03-24T10:48:00.615Z,0.0
2023-03-24T10:52:00.536Z,0.0
2023-03-24T10:56:00.564Z,0.0
2023-03-24T11:00:00.587Z,0.0
2023-03-24T11:04:00.622Z,0.0
2023-03-24T11:08:00.558Z,0.0
2023-03-24T11:12:00.559Z,0.0
2023-03-24T11:16:00.549Z,0.0
2023-03-24T11:20:00.543Z,0.0
2023-03-24T11:24:00.537Z,0.0
2023-03-24T11:28:00.551Z,0.0
2023-03-24T11:32:00.536Z,0.0
2023-03-24T11:36:05.985Z,0.0
2023-03-24T11:40:00.523Z,0.0
2023-03-24T11:44:00.571Z,0.0
2023-03-24T11:48:00.592Z,0.0
2023-03-24T11:52:00.545Z,0.0
2023-03-24T11:56:00.541Z,0.0
2023-03-24T12:00:00.558Z,0.0
2023-03-24T12:04:00.577Z,0.0
2023-03-24T12:08:00.560Z,0.0
2023-03-24T12:12:00.553Z,0.0
2023-03-24T12:16:00.605Z,0.0
2023-03-24T12:20:00.557Z,0.0
2023-03-24T12:24:00.561Z,0.0
2023-03-24T12:28:00.534Z,0.0
2023-03-24T12:32:00.557Z,0.0
2023-03-24T12:36:00.591Z,0.0
2023-03-24T12:40:00.532Z,0.0
2023-03-24T12:44:00.558Z,0.0
2023-03-24T12:48:00.630Z,0.0
2023-03-24T12:52:00.537Z,0.0
2023-03-24T12:56:00.542Z,0.0
2023-03-24T13:00:00.528Z,0.0
2023-03-24T13:04:00.580Z,0.0
2023-03-24T13:08:00.545Z,0.0
2023-03-24T13:12:00.559Z,0.0
2023-03-24T13:16:00.577Z,0.0
2023-03-24T13:20:00.582Z,0.0
2023-03-24T13:24:00.549Z,0.0
2023-03-24T13:28:00.568Z,0.0
2023-03-24T13:32:00.584Z,0.0
2023-03-24T13:36:00.606Z,0.0
2023-03-24T13:40:00.573Z,0.0
2023-03-24T13:44:00.544Z,0.0
2023-03-24T13:48:00.592Z,0.0
2023-03-24T13:52:00.560Z,0.0
2023-03-24T13:56:00.553Z,0.0
2023-03-24T14:00:00.553Z,0.0
2023-03-24T14:04:00.536Z,0.0
2023-03-24T14:08:00.556Z,0.0
2023-03-24T14:12:00.529Z,0.0
2023-03-24T14:16:00.549Z,0.0
2023-03-24T14:20:00.542Z,0.0
2023-03-24T14:24:00.562Z,0.0
2023-03-24T14:28:00.531Z,0.0
2023-03-24T14:32:04.456Z,0.0
2023-03-24T14:36:00.564Z,0.0
2023-03-24T14:40:00.554Z,0.0
2023-03-24T14:44:00.590Z,0.0
2023-03-24T14:48:00.631Z,0.0
2023-03-24T14:52:00.565Z,0.0
2023-03-24T14:56:00.539Z,0.0
2023-03-24T15:00:00.565Z,0.0
2023-03-24T15:04:00.597Z,0.0
2023-03-24T15:08:00.544Z,0.0
2023-03-24T15:12:00.612Z,0.0
2023-03-24T15:16:00.607Z,0.0
2023-03-24T15:20:00.552Z,0.0
2023-03-24T15:24:00.538Z,0.0
2023-03-24T15:28:00.544Z,0.0
2023-03-24T15:32:00.626Z,0.0
2023-03-24T15:36:00.580Z,0.0
2023-03-24T15:40:13.204Z,0.0
2023-03-24T15:44:00.543Z,0.0
2023-03-24T15:48:00.594Z,0.0
2023-03-24T15:52:00.519Z,0.0
2023-03-24T15:56:00.535Z,0.0
2023-03-24T16:00:00.546Z,0.0
2023-03-24T16:04:00.581Z,0.0
2023-03-24T16:08:00.557Z,0.0
2023-03-24T16:12:00.549Z,0.0
2023-03-24T16:16:00.539Z,0.0
2023-03-24T16:20:00.552Z,0.0
2023-03-24T16:24:00.574Z,0.0
2023-03-24T16:28:00.560Z,0.0
2023-03-24T16:32:00.540Z,0.0
2023-03-24T16:36:00.658Z,0.0
2023-03-24T16:40:02.998Z,0.0
2023-03-24T16:44:00.559Z,0.0
2023-03-24T16:48:00.616Z,0.0
2023-03-24T16:52:00.566Z,0.0
2023-03-24T16:56:00.565Z,0.0
2023-03-24T17:00:00.570Z,0.0
2023-03-24T17:04:00.566Z,0.0
2023-03-24T17:08:00.560Z,0.0
2023-03-24T17:12:00.559Z,0.0
2023-03-24T17:16:00.604Z,0.0
2023-03-24T17:20:01.625Z,0.0
2023-03-24T17:24:00.546Z,0.0
2023-03-24T17:28:00.532Z,0.0
2023-03-24T17:32:00.545Z,0.0
2023-03-24T17:36:00.636Z,0.0
2023-03-24T17:40:00.537Z,0.0
2023-03-24T17:44:00.568Z,0.0
2023-03-24T17:48:00.586Z,0.0
2023-03-24T17:52:00.540Z,0.0
2023-03-24T17:56:00.540Z,0.0
2023-03-24T18:00:00.544Z,0.0
2023-03-24T18:04:00.707Z,0.0
2023-03-24T18:08:00.532Z,0.0
2023-03-24T18:12:00.575Z,0.0
2023-03-24T18:16:13.253Z,0.0
2023-03-24T18:20:00.655Z,0.0
2023-03-24T18:24:00.539Z,0.0
2023-03-24T18:28:00.554Z,0.0
2023-03-24T18:32:00.551Z,0.0
2023-03-24T18:36:00.594Z,0.0
2023-03-24T18:40:00.666Z,0.0
2023-03-24T18:44:00.556Z,0.0
2023-03-24T18:48:00.631Z,0.0
2023-03-24T18:52:00.552Z,0.0
2023-03-24T18:56:00.563Z,0.0
2023-03-24T19:00:00.867Z,0.0
2023-03-24T19:04:00.556Z,0.0
2023-03-24T19:08:00.541Z,0.0
2023-03-24T19:12:00.532Z,0.0
2023-03-24T19:16:00.597Z,0.0
2023-03-24T19:20:00.547Z,0.0
2023-03-24T19:24:00.559Z,0.0
2023-03-24T19:28:00.545Z,0.0
2023-03-24T19:32:00.571Z,0.0
2023-03-24T19:36:00.598Z,0.0
2023-03-24T19:40:00.537Z,0.0
2023-03-24T19:44:00.577Z,0.0
2023-03-24T19:48:00.614Z,0.0
2023-03-24T19:52:00.547Z,0.0
2023-03-24T19:56:00.533Z,0.0
2023-03-24T20:00:00.633Z,0.0
2023-03-24T20:04:00.617Z,0.0
2023-03-24T20:08:00.521Z,0.0
2023-03-24T20:12:00.566Z,0.0
2023-03-24T20:16:00.555Z,0.0
2023-03-24T20:20:00.556Z,0.0
2023-03-24T20:24:00.549Z,0.0
2023-03-24T20:28:00.558Z,0.0
2023-03-24T20:32:00.555Z,0.0
2023-03-24T20:36:00.636Z,0.0
2023-03-24T20:40:00.526Z,0.0
2023-03-24T20:44:00.551Z,0.0
2023-03-24T20:48:00.572Z,0.0
2023-03-24T20:52:00.544Z,0.0
2023-03-24T20:56:00.562Z,0.0
2023-03-24T21:00:00.587Z,0.0
2023-03-24T21:04:08.759Z,0.0
2023-03-24T21:08:00.558Z,0.0
2023-03-24T21:12:00.530Z,0.0
2023-03-24T21:16:00.558Z,0.0
2023-03-24T21:20:00.559Z,0.0
2023-03-24T21:24:00.775Z,0.0
2023-03-24T21:28:00.561Z,0.0
2023-03-24T21:32:00.538Z,0.0
2023-03-24T21:36:00.610Z,0.0
2023-03-24T21:40:00.542Z,0.0
2023-03-24T21:44:00.827Z,0.0
2023-03-24T21:48:00.634Z,0.0
2023-03-24T21:52:00.545Z,0.0
2023-03-24T21:56:00.584Z,0.0
2023-03-24T22:00:00.553Z,0.0
2023-03-24T22:04:00.674Z,0.0
2023-03-24T22:08:00.532Z,0.0
2023-03-24T22:12:00.563Z,0.0
2023-03-24T22:16:00.560Z,0.0
2023-03-24T22:20:00.545Z,0.0
2023-03-24T22:24:00.535Z,0.0
2023-03-24T22:28:00.563Z,0.0
2023-03-24T22:32:00.538Z,0.0
2023-03-24T22:36:00.550Z,0.0
2023-03-24T22:40:00.604Z,0.0
2023-03-24T22:44:00.554Z,0.0
2023-03-24T22:48:00.582Z,0.0
2023-03-24T22:52:00.534Z,0.0
2023-03-24T22:56:00.549Z,0.0
2023-03-24T23:00:00.539Z,0.0
2023-03-24T23:04:00.529Z,0.0
2023-03-24T23:08:00.555Z,0.0
2023-03-24T23:12:00.533Z,0.0
2023-03-24T23:16:00.571Z,0.0
2023-03-24T23:20:00.519Z,0.0
2023-03-24T23:24:00.562Z,0.0
2023-03-24T23:28:00.513Z,0.0
2023-03-24T23:32:00.520Z,0.0
2023-03-24T23:36:00.576Z,0.0
2023-03-24T23:40:00.556Z,0.0
2023-03-24T23:44:00.546Z,0.0
2023-03-24T23:48:00.588Z,0.0
2023-03-24T23:52:00.526Z,0.0
2023-03-24T23:56:00.562Z,0.0
